sensor_id;sensor_type;location;lat;lon;timestamp;pressure;altitude;pressure_sealevel;temperature;humidity
10618;BME280;5356;43.526;26.534;2022-10-16T00:01:13;99919.06;;;9.76;98.33
10618;BME280;5356;43.526;26.534;2022-10-16T00:03:40;99917.44;;;9.75;98.20
10618;BME280;5356;43.526;26.534;2022-10-16T00:06:06;99914.78;;;9.75;98.14
10618;BME280;5356;43.526;26.534;2022-10-16T00:08:32;99919.28;;;9.74;97.58
10618;BME280;5356;43.526;26.534;2022-10-16T00:11:07;99922.38;;;9.78;97.88
10618;BME280;5356;43.526;26.534;2022-10-16T00:13:34;99917.63;;;9.73;97.86
10618;BME280;5356;43.526;26.534;2022-10-16T00:16:01;99917.19;;;9.70;98.25
10618;BME280;5356;43.526;26.534;2022-10-16T00:18:28;99920.88;;;9.69;98.07
10618;BME280;5356;43.526;26.534;2022-10-16T00:20:53;99924.13;;;9.64;98.18
10618;BME280;5356;43.526;26.534;2022-10-16T00:23:19;99927.59;;;9.64;98.02
10618;BME280;5356;43.526;26.534;2022-10-16T00:25:54;99928.22;;;9.60;98.25
10618;BME280;5356;43.526;26.534;2022-10-16T00:28:20;99928.75;;;9.49;98.30
10618;BME280;5356;43.526;26.534;2022-10-16T00:30:45;99927.91;;;9.48;98.28
10618;BME280;5356;43.526;26.534;2022-10-16T00:33:11;99930.56;;;9.48;97.96
10618;BME280;5356;43.526;26.534;2022-10-16T00:35:36;99930.56;;;9.48;98.07
10618;BME280;5356;43.526;26.534;2022-10-16T00:38:02;99937.13;;;9.46;98.48
10618;BME280;5356;43.526;26.534;2022-10-16T00:40:27;99936.28;;;9.45;98.41
10618;BME280;5356;43.526;26.534;2022-10-16T00:42:53;99931.16;;;9.43;97.91
10618;BME280;5356;43.526;26.534;2022-10-16T00:45:18;99948.09;;;9.42;97.54
10618;BME280;5356;43.526;26.534;2022-10-16T00:47:45;99939.53;;;9.40;97.63
10618;BME280;5356;43.526;26.534;2022-10-16T00:50:27;99947.44;;;9.34;97.67
10618;BME280;5356;43.526;26.534;2022-10-16T00:52:54;99938.22;;;9.30;98.14
10618;BME280;5356;43.526;26.534;2022-10-16T00:55:20;99948.84;;;9.30;97.97
10618;BME280;5356;43.526;26.534;2022-10-16T00:57:47;99952.31;;;9.30;97.93
10618;BME280;5356;43.526;26.534;2022-10-16T01:00:17;99955.56;;;9.26;97.90
10618;BME280;5356;43.526;26.534;2022-10-16T01:02:43;99955.31;;;9.20;98.30
10618;BME280;5356;43.526;26.534;2022-10-16T01:05:09;99960.25;;;9.24;97.74
10618;BME280;5356;43.526;26.534;2022-10-16T01:20:31;99971.91;;;9.01;97.64
10618;BME280;5356;43.526;26.534;2022-10-16T01:28:36;99967.59;;;9.00;98.35
10618;BME280;5356;43.526;26.534;2022-10-16T01:31:04;99970.44;;;8.98;97.76
10618;BME280;5356;43.526;26.534;2022-10-16T01:33:43;99977.13;;;8.94;98.14
10618;BME280;5356;43.526;26.534;2022-10-16T01:36:14;99968.94;;;8.89;98.17
10618;BME280;5356;43.526;26.534;2022-10-16T01:38:42;99965.63;;;8.87;97.81
10618;BME280;5356;43.526;26.534;2022-10-16T01:41:23;99972.97;;;8.85;98.42
10618;BME280;5356;43.526;26.534;2022-10-16T01:44:14;99972.16;;;8.85;98.58
10618;BME280;5356;43.526;26.534;2022-10-16T01:46:46;99968.03;;;8.82;98.45
10618;BME280;5356;43.526;26.534;2022-10-16T01:49:12;99975.00;;;8.83;97.84
10618;BME280;5356;43.526;26.534;2022-10-16T01:51:38;99972.53;;;8.82;97.93
10618;BME280;5356;43.526;26.534;2022-10-16T01:54:06;99971.63;;;8.74;97.84
10618;BME280;5356;43.526;26.534;2022-10-16T01:56:34;99965.06;;;8.70;98.08
10618;BME280;5356;43.526;26.534;2022-10-16T01:59:09;99974.59;;;8.65;97.88
10618;BME280;5356;43.526;26.534;2022-10-16T02:01:39;99977.19;;;8.58;98.52
10618;BME280;5356;43.526;26.534;2022-10-16T02:04:33;99975.91;;;8.54;98.83
10618;BME280;5356;43.526;26.534;2022-10-16T02:06:59;99972.59;;;8.52;98.70
10618;BME280;5356;43.526;26.534;2022-10-16T02:09:25;99978.66;;;8.46;99.11
10618;BME280;5356;43.526;26.534;2022-10-16T02:11:53;99969.13;;;8.37;99.38
10618;BME280;5356;43.526;26.534;2022-10-16T02:14:21;99966.78;;;8.42;99.35
10618;BME280;5356;43.526;26.534;2022-10-16T02:16:49;99968.78;;;8.40;99.06
10618;BME280;5356;43.526;26.534;2022-10-16T02:19:17;99970.06;;;8.44;98.67
10618;BME280;5356;43.526;26.534;2022-10-16T02:24:29;99982.94;;;8.32;99.43
10618;BME280;5356;43.526;26.534;2022-10-16T02:27:10;99980.31;;;8.17;99.60
10618;BME280;5356;43.526;26.534;2022-10-16T02:29:41;99999.91;;;8.16;99.93
10618;BME280;5356;43.526;26.534;2022-10-16T02:32:11;99995.25;;;8.18;100.00
10618;BME280;5356;43.526;26.534;2022-10-16T02:34:39;100000.19;;;8.21;100.00
10618;BME280;5356;43.526;26.534;2022-10-16T02:37:06;100000.19;;;8.21;99.99
10618;BME280;5356;43.526;26.534;2022-10-16T02:39:33;99999.53;;;8.19;100.00
10618;BME280;5356;43.526;26.534;2022-10-16T02:41:58;99997.44;;;8.00;100.00
10618;BME280;5356;43.526;26.534;2022-10-16T02:44:24;99996.06;;;8.04;100.00
10618;BME280;5356;43.526;26.534;2022-10-16T02:46:49;99990.66;;;8.12;100.00
10618;BME280;5356;43.526;26.534;2022-10-16T02:49:15;99996.59;;;8.14;100.00
10618;BME280;5356;43.526;26.534;2022-10-16T02:51:40;100000.28;;;8.13;100.00
10618;BME280;5356;43.526;26.534;2022-10-16T02:54:06;100001.09;;;8.14;100.00
10618;BME280;5356;43.526;26.534;2022-10-16T02:56:31;100002.72;;;8.15;100.00
10618;BME280;5356;43.526;26.534;2022-10-16T02:58:57;100012.38;;;8.16;100.00
10618;BME280;5356;43.526;26.534;2022-10-16T03:01:23;100011.19;;;8.18;100.00
10618;BME280;5356;43.526;26.534;2022-10-16T03:03:49;100008.53;;;8.18;100.00
10618;BME280;5356;43.526;26.534;2022-10-16T03:06:14;100012.63;;;8.21;100.00
10618;BME280;5356;43.526;26.534;2022-10-16T03:08:40;100005.09;;;8.09;99.96
10618;BME280;5356;43.526;26.534;2022-10-16T03:11:05;100005.84;;;8.03;99.99
10618;BME280;5356;43.526;26.534;2022-10-16T03:13:31;100006.59;;;7.97;99.65
10618;BME280;5356;43.526;26.534;2022-10-16T03:15:56;100008.78;;;7.94;99.54
10618;BME280;5356;43.526;26.534;2022-10-16T03:18:22;100014.44;;;7.91;99.46
10618;BME280;5356;43.526;26.534;2022-10-16T03:20:47;100015.19;;;7.84;99.37
10618;BME280;5356;43.526;26.534;2022-10-16T03:23:13;100016.53;;;7.80;99.56
10618;BME280;5356;43.526;26.534;2022-10-16T03:25:38;100010.78;;;7.77;99.67
10618;BME280;5356;43.526;26.534;2022-10-16T03:28:04;100009.47;;;7.73;99.85
10618;BME280;5356;43.526;26.534;2022-10-16T03:30:29;100014.53;;;7.68;100.00
10618;BME280;5356;43.526;26.534;2022-10-16T03:32:55;100024.00;;;7.62;99.62
10618;BME280;5356;43.526;26.534;2022-10-16T03:35:22;100016.59;;;7.57;100.00
10618;BME280;5356;43.526;26.534;2022-10-16T03:37:47;100019.75;;;7.53;99.98
10618;BME280;5356;43.526;26.534;2022-10-16T03:40:13;100019.31;;;7.49;100.00
10618;BME280;5356;43.526;26.534;2022-10-16T03:42:39;100016.66;;;7.49;100.00
10618;BME280;5356;43.526;26.534;2022-10-16T03:45:05;100026.28;;;7.50;100.00
10618;BME280;5356;43.526;26.534;2022-10-16T03:47:30;100019.22;;;7.42;100.00
10618;BME280;5356;43.526;26.534;2022-10-16T03:49:58;100017.91;;;7.38;100.00
10618;BME280;5356;43.526;26.534;2022-10-16T03:52:24;100015.38;;;7.45;100.00
10618;BME280;5356;43.526;26.534;2022-10-16T03:54:50;100011.91;;;7.45;100.00
10618;BME280;5356;43.526;26.534;2022-10-16T03:57:15;100019.66;;;7.46;100.00
10618;BME280;5356;43.526;26.534;2022-10-16T03:59:41;100025.16;;;7.45;100.00
10618;BME280;5356;43.526;26.534;2022-10-16T04:02:06;100026.88;;;7.37;100.00
10618;BME280;5356;43.526;26.534;2022-10-16T04:04:32;100029.50;;;7.37;100.00
10618;BME280;5356;43.526;26.534;2022-10-16T04:06:57;100026.50;;;7.40;100.00
10618;BME280;5356;43.526;26.534;2022-10-16T04:09:22;100030.47;;;7.45;100.00
10618;BME280;5356;43.526;26.534;2022-10-16T04:11:48;100026.16;;;7.43;100.00
10618;BME280;5356;43.526;26.534;2022-10-16T04:14:14;100025.22;;;7.36;100.00
10618;BME280;5356;43.526;26.534;2022-10-16T04:16:39;100033.19;;;7.36;100.00
10618;BME280;5356;43.526;26.534;2022-10-16T04:19:04;100034.81;;;7.37;100.00
10618;BME280;5356;43.526;26.534;2022-10-16T04:21:30;100040.78;;;7.39;100.00
10618;BME280;5356;43.526;26.534;2022-10-16T04:23:55;100037.41;;;7.46;100.00
10618;BME280;5356;43.526;26.534;2022-10-16T04:26:21;100029.81;;;7.42;100.00
10618;BME280;5356;43.526;26.534;2022-10-16T04:28:46;100024.97;;;7.46;100.00
10618;BME280;5356;43.526;26.534;2022-10-16T04:31:12;100021.19;;;7.40;100.00
10618;BME280;5356;43.526;26.534;2022-10-16T04:33:37;100030.22;;;7.31;100.00
10618;BME280;5356;43.526;26.534;2022-10-16T04:36:03;100030.94;;;7.25;100.00
10618;BME280;5356;43.526;26.534;2022-10-16T04:38:29;100044.06;;;7.18;100.00
10618;BME280;5356;43.526;26.534;2022-10-16T04:40:55;100043.44;;;7.16;100.00
10618;BME280;5356;43.526;26.534;2022-10-16T04:43:21;100039.00;;;7.09;100.00
10618;BME280;5356;43.526;26.534;2022-10-16T04:45:46;100044.00;;;7.04;100.00
10618;BME280;5356;43.526;26.534;2022-10-16T04:48:12;100044.81;;;7.04;100.00
10618;BME280;5356;43.526;26.534;2022-10-16T04:50:37;100044.50;;;6.99;100.00
10618;BME280;5356;43.526;26.534;2022-10-16T04:53:03;100049.69;;;6.92;100.00
10618;BME280;5356;43.526;26.534;2022-10-16T04:55:29;100056.63;;;6.93;100.00
10618;BME280;5356;43.526;26.534;2022-10-16T04:57:54;100056.63;;;6.93;100.00
10618;BME280;5356;43.526;26.534;2022-10-16T05:00:20;100056.84;;;6.84;100.00
10618;BME280;5356;43.526;26.534;2022-10-16T05:02:46;100057.53;;;6.86;100.00
10618;BME280;5356;43.526;26.534;2022-10-16T05:05:11;100063.63;;;6.86;100.00
10618;BME280;5356;43.526;26.534;2022-10-16T05:07:37;100069.09;;;6.85;100.00
10618;BME280;5356;43.526;26.534;2022-10-16T05:10:03;100063.69;;;6.78;100.00
10618;BME280;5356;43.526;26.534;2022-10-16T05:12:28;100066.97;;;6.80;100.00
10618;BME280;5356;43.526;26.534;2022-10-16T05:14:54;100071.75;;;6.85;100.00
10618;BME280;5356;43.526;26.534;2022-10-16T05:17:26;100068.94;;;6.86;100.00
10618;BME280;5356;43.526;26.534;2022-10-16T05:19:51;100073.53;;;6.92;100.00
10618;BME280;5356;43.526;26.534;2022-10-16T05:22:17;100078.47;;;6.95;100.00
10618;BME280;5356;43.526;26.534;2022-10-16T05:24:42;100084.78;;;6.94;100.00
10618;BME280;5356;43.526;26.534;2022-10-16T05:27:08;100088.41;;;6.93;100.00
10618;BME280;5356;43.526;26.534;2022-10-16T05:29:33;100092.53;;;6.96;100.00
10618;BME280;5356;43.526;26.534;2022-10-16T05:32:00;100085.38;;;7.05;100.00
10618;BME280;5356;43.526;26.534;2022-10-16T05:34:25;100089.34;;;7.09;100.00
10618;BME280;5356;43.526;26.534;2022-10-16T05:36:51;100099.22;;;7.15;100.00
10618;BME280;5356;43.526;26.534;2022-10-16T05:39:16;100096.22;;;7.18;100.00
10618;BME280;5356;43.526;26.534;2022-10-16T05:41:42;100099.69;;;7.18;100.00
10618;BME280;5356;43.526;26.534;2022-10-16T05:44:08;100099.66;;;7.27;100.00
10618;BME280;5356;43.526;26.534;2022-10-16T05:46:33;100102.72;;;7.38;100.00
10618;BME280;5356;43.526;26.534;2022-10-16T05:48:59;100103.31;;;7.49;100.00
10618;BME280;5356;43.526;26.534;2022-10-16T05:51:24;100109.75;;;7.54;100.00
10618;BME280;5356;43.526;26.534;2022-10-16T05:53:50;100111.16;;;7.65;100.00
10618;BME280;5356;43.526;26.534;2022-10-16T05:56:16;100114.94;;;7.71;100.00
10618;BME280;5356;43.526;26.534;2022-10-16T05:58:41;100116.66;;;7.78;100.00
10618;BME280;5356;43.526;26.534;2022-10-16T06:01:10;100128.59;;;7.82;100.00
10618;BME280;5356;43.526;26.534;2022-10-16T06:03:36;100128.16;;;7.94;100.00
10618;BME280;5356;43.526;26.534;2022-10-16T06:06:13;100122.78;;;8.02;100.00
10618;BME280;5356;43.526;26.534;2022-10-16T06:08:39;100130.63;;;8.18;100.00
10618;BME280;5356;43.526;26.534;2022-10-16T06:11:08;100134.63;;;8.29;100.00
10618;BME280;5356;43.526;26.534;2022-10-16T06:13:34;100129.16;;;8.30;100.00
10618;BME280;5356;43.526;26.534;2022-10-16T06:16:00;100134.22;;;8.40;100.00
10618;BME280;5356;43.526;26.534;2022-10-16T06:18:26;100135.69;;;8.58;100.00
10618;BME280;5356;43.526;26.534;2022-10-16T06:20:52;100130.19;;;8.74;100.00
10618;BME280;5356;43.526;26.534;2022-10-16T06:23:19;100132.50;;;8.92;100.00
10618;BME280;5356;43.526;26.534;2022-10-16T06:25:44;100139.78;;;9.05;100.00
10618;BME280;5356;43.526;26.534;2022-10-16T06:28:09;100138.47;;;9.15;100.00
10618;BME280;5356;43.526;26.534;2022-10-16T06:30:35;100144.56;;;9.31;100.00
10618;BME280;5356;43.526;26.534;2022-10-16T06:33:00;100138.28;;;9.32;100.00
10618;BME280;5356;43.526;26.534;2022-10-16T06:35:26;100142.50;;;9.48;100.00
10618;BME280;5356;43.526;26.534;2022-10-16T06:37:53;100140.16;;;9.59;100.00
10618;BME280;5356;43.526;26.534;2022-10-16T06:40:18;100144.03;;;9.78;100.00
10618;BME280;5356;43.526;26.534;2022-10-16T06:42:44;100145.81;;;9.93;100.00
10618;BME280;5356;43.526;26.534;2022-10-16T06:45:10;100142.84;;;10.02;100.00
10618;BME280;5356;43.526;26.534;2022-10-16T06:47:35;100149.78;;;10.25;100.00
10618;BME280;5356;43.526;26.534;2022-10-16T06:50:01;100158.00;;;10.30;100.00
10618;BME280;5356;43.526;26.534;2022-10-16T06:52:29;100157.09;;;10.44;100.00
10618;BME280;5356;43.526;26.534;2022-10-16T06:54:54;100152.06;;;10.56;100.00
10618;BME280;5356;43.526;26.534;2022-10-16T06:57:20;100157.13;;;10.79;100.00
10618;BME280;5356;43.526;26.534;2022-10-16T06:59:45;100168.63;;;10.86;100.00
10618;BME280;5356;43.526;26.534;2022-10-16T07:02:11;100164.16;;;10.93;100.00
10618;BME280;5356;43.526;26.534;2022-10-16T07:04:36;100167.91;;;11.06;100.00
10618;BME280;5356;43.526;26.534;2022-10-16T07:07:02;100163.03;;;11.22;100.00
10618;BME280;5356;43.526;26.534;2022-10-16T07:09:28;100173.31;;;11.32;100.00
10618;BME280;5356;43.526;26.534;2022-10-16T07:11:53;100168.03;;;11.45;100.00
10618;BME280;5356;43.526;26.534;2022-10-16T07:14:20;100161.69;;;11.46;100.00
10618;BME280;5356;43.526;26.534;2022-10-16T07:16:46;100160.25;;;11.51;100.00
10618;BME280;5356;43.526;26.534;2022-10-16T07:19:12;100166.03;;;11.61;100.00
10618;BME280;5356;43.526;26.534;2022-10-16T07:21:40;100165.63;;;11.77;100.00
10618;BME280;5356;43.526;26.534;2022-10-16T07:24:10;100174.97;;;11.95;100.00
10618;BME280;5356;43.526;26.534;2022-10-16T07:26:36;100168.38;;;12.24;100.00
10618;BME280;5356;43.526;26.534;2022-10-16T07:29:11;100175.94;;;12.53;100.00
10618;BME280;5356;43.526;26.534;2022-10-16T07:31:37;100177.78;;;12.73;100.00
10618;BME280;5356;43.526;26.534;2022-10-16T07:34:03;100168.47;;;12.89;100.00
10618;BME280;5356;43.526;26.534;2022-10-16T07:36:29;100170.66;;;13.12;100.00
10618;BME280;5356;43.526;26.534;2022-10-16T07:38:54;100175.34;;;13.36;100.00
10618;BME280;5356;43.526;26.534;2022-10-16T07:41:20;100178.34;;;13.53;100.00
10618;BME280;5356;43.526;26.534;2022-10-16T07:43:47;100176.88;;;13.57;100.00
10618;BME280;5356;43.526;26.534;2022-10-16T07:46:13;100177.56;;;13.78;100.00
10618;BME280;5356;43.526;26.534;2022-10-16T07:48:39;100174.53;;;13.99;100.00
10618;BME280;5356;43.526;26.534;2022-10-16T07:51:06;100171.19;;;14.04;100.00
10618;BME280;5356;43.526;26.534;2022-10-16T07:53:32;100169.75;;;14.26;100.00
10618;BME280;5356;43.526;26.534;2022-10-16T07:56:04;100164.53;;;14.38;99.92
10618;BME280;5356;43.526;26.534;2022-10-16T07:58:30;100174.41;;;14.63;99.31
10618;BME280;5356;43.526;26.534;2022-10-16T08:00:56;100167.41;;;14.80;97.13
10618;BME280;5356;43.526;26.534;2022-10-16T08:03:22;100161.47;;;14.96;95.84
10618;BME280;5356;43.526;26.534;2022-10-16T08:05:48;100169.53;;;15.15;94.15
10618;BME280;5356;43.526;26.534;2022-10-16T08:08:14;100167.59;;;15.34;91.06
10618;BME280;5356;43.526;26.534;2022-10-16T08:10:40;100174.25;;;15.31;83.15
10618;BME280;5356;43.526;26.534;2022-10-16T08:13:06;100176.47;;;15.34;82.04
10618;BME280;5356;43.526;26.534;2022-10-16T08:15:32;100178.69;;;15.56;81.56
10618;BME280;5356;43.526;26.534;2022-10-16T08:17:59;100177.09;;;15.66;79.56
10618;BME280;5356;43.526;26.534;2022-10-16T08:20:26;100185.22;;;15.78;78.23
10618;BME280;5356;43.526;26.534;2022-10-16T08:22:52;100179.78;;;15.97;79.27
10618;BME280;5356;43.526;26.534;2022-10-16T08:25:20;100185.53;;;16.24;80.12
10618;BME280;5356;43.526;26.534;2022-10-16T08:27:46;100174.22;;;16.33;76.84
10618;BME280;5356;43.526;26.534;2022-10-16T08:30:12;100177.13;;;16.32;74.63
10618;BME280;5356;43.526;26.534;2022-10-16T08:32:37;100182.75;;;16.42;73.83
10618;BME280;5356;43.526;26.534;2022-10-16T08:35:03;100177.03;;;16.50;72.49
10618;BME280;5356;43.526;26.534;2022-10-16T08:37:33;100181.22;;;16.58;71.26
10618;BME280;5356;43.526;26.534;2022-10-16T08:39:58;100175.97;;;16.63;69.31
10618;BME280;5356;43.526;26.534;2022-10-16T08:42:46;100173.75;;;16.60;65.84
10618;BME280;5356;43.526;26.534;2022-10-16T08:45:32;100168.59;;;16.70;60.68
10618;BME280;5356;43.526;26.534;2022-10-16T08:50:49;100163.56;;;16.74;61.78
10618;BME280;5356;43.526;26.534;2022-10-16T08:53:22;100173.06;;;16.76;60.30
10618;BME280;5356;43.526;26.534;2022-10-16T08:55:51;100168.03;;;16.80;61.12
10618;BME280;5356;43.526;26.534;2022-10-16T08:58:22;100166.38;;;16.91;60.96
10618;BME280;5356;43.526;26.534;2022-10-16T09:00:53;100170.22;;;16.95;60.97
10618;BME280;5356;43.526;26.534;2022-10-16T09:03:53;100168.56;;;17.05;59.98
10618;BME280;5356;43.526;26.534;2022-10-16T09:13:54;100177.19;;;17.19;58.22
10618;BME280;5356;43.526;26.534;2022-10-16T09:16:28;100172.34;;;17.33;58.13
10618;BME280;5356;43.526;26.534;2022-10-16T09:21:27;100173.69;;;17.47;57.90
10618;BME280;5356;43.526;26.534;2022-10-16T09:23:58;100171.09;;;17.53;57.08
10618;BME280;5356;43.526;26.534;2022-10-16T09:26:24;100170.72;;;17.61;57.80
10618;BME280;5356;43.526;26.534;2022-10-16T09:28:52;100172.66;;;17.65;56.05
10618;BME280;5356;43.526;26.534;2022-10-16T09:31:20;100166.28;;;17.55;55.58
10618;BME280;5356;43.526;26.534;2022-10-16T09:33:55;100162.66;;;17.49;56.17
10618;BME280;5356;43.526;26.534;2022-10-16T09:36:25;100161.91;;;17.65;56.87
10618;BME280;5356;43.526;26.534;2022-10-16T09:39:05;100179.28;;;17.86;56.33
10618;BME280;5356;43.526;26.534;2022-10-16T09:41:35;100175.75;;;17.86;55.04
10618;BME280;5356;43.526;26.534;2022-10-16T09:44:02;100177.31;;;17.82;55.05
10618;BME280;5356;43.526;26.534;2022-10-16T09:46:34;100177.19;;;17.77;54.23
10618;BME280;5356;43.526;26.534;2022-10-16T09:49:05;100170.63;;;17.84;54.68
10618;BME280;5356;43.526;26.534;2022-10-16T09:51:43;100165.66;;;17.93;54.98
10618;BME280;5356;43.526;26.534;2022-10-16T09:56:35;100163.59;;;18.00;53.66
10618;BME280;5356;43.526;26.534;2022-10-16T09:59:11;100166.47;;;18.10;54.79
10618;BME280;5356;43.526;26.534;2022-10-16T10:01:51;100164.19;;;18.19;54.40
10618;BME280;5356;43.526;26.534;2022-10-16T10:04:21;100159.19;;;18.28;53.92
10618;BME280;5356;43.526;26.534;2022-10-16T10:06:51;100154.59;;;18.45;53.35
10618;BME280;5356;43.526;26.534;2022-10-16T10:09:26;100150.84;;;18.46;53.00
10618;BME280;5356;43.526;26.534;2022-10-16T10:11:56;100155.00;;;18.37;52.19
10618;BME280;5356;43.526;26.534;2022-10-16T10:16:51;100148.97;;;18.30;51.59
10618;BME280;5356;43.526;26.534;2022-10-16T10:19:18;100149.47;;;18.27;52.54
10618;BME280;5356;43.526;26.534;2022-10-16T10:21:44;100144.13;;;18.49;52.97
10618;BME280;5356;43.526;26.534;2022-10-16T10:24:13;100145.03;;;18.54;51.65
10618;BME280;5356;43.526;26.534;2022-10-16T10:26:49;100145.44;;;18.46;51.20
10618;BME280;5356;43.526;26.534;2022-10-16T10:32:05;100136.94;;;18.37;51.21
10618;BME280;5356;43.526;26.534;2022-10-16T10:35:19;100142.88;;;18.56;53.56
10618;BME280;5356;43.526;26.534;2022-10-16T10:38:05;100139.25;;;18.68;51.76
10618;BME280;5356;43.526;26.534;2022-10-16T10:46:36;100138.19;;;18.69;50.61
10618;BME280;5356;43.526;26.534;2022-10-16T10:49:09;100139.75;;;18.65;50.61
10618;BME280;5356;43.526;26.534;2022-10-16T10:55:09;100129.25;;;18.85;50.56
10618;BME280;5356;43.526;26.534;2022-10-16T11:09:13;100109.59;;;19.12;49.74
10618;BME280;5356;43.526;26.534;2022-10-16T11:11:47;100110.53;;;19.00;49.36
10618;BME280;5356;43.526;26.534;2022-10-16T11:22:17;100122.03;;;18.91;48.06
10618;BME280;5356;43.526;26.534;2022-10-16T11:27:17;100127.75;;;18.94;47.59
10618;BME280;5356;43.526;26.534;2022-10-16T11:29:48;100122.84;;;18.91;47.48
10618;BME280;5356;43.526;26.534;2022-10-16T11:32:45;100123.75;;;18.97;46.67
10618;BME280;5356;43.526;26.534;2022-10-16T11:35:23;100123.47;;;18.98;47.88
10618;BME280;5356;43.526;26.534;2022-10-16T11:37:51;100126.03;;;19.10;47.67
10618;BME280;5356;43.526;26.534;2022-10-16T11:40:25;100125.94;;;19.27;47.75
10618;BME280;5356;43.526;26.534;2022-10-16T11:43:38;100126.75;;;19.27;47.70
10618;BME280;5356;43.526;26.534;2022-10-16T11:46:08;100122.28;;;19.38;46.35
10618;BME280;5356;43.526;26.534;2022-10-16T11:53:51;100124.47;;;19.14;46.91
10618;BME280;5356;43.526;26.534;2022-10-16T11:56:20;100128.72;;;19.32;46.74
10618;BME280;5356;43.526;26.534;2022-10-16T12:01:26;100129.44;;;19.49;46.15
10618;BME280;5356;43.526;26.534;2022-10-16T12:07:04;100129.34;;;19.39;45.73
10618;BME280;5356;43.526;26.534;2022-10-16T12:09:32;100141.47;;;19.37;45.27
10618;BME280;5356;43.526;26.534;2022-10-16T12:12:00;100129.59;;;19.38;45.24
10618;BME280;5356;43.526;26.534;2022-10-16T12:17:22;100137.38;;;19.34;44.75
10618;BME280;5356;43.526;26.534;2022-10-16T12:20:12;100134.06;;;19.54;45.15
10618;BME280;5356;43.526;26.534;2022-10-16T12:23:02;100131.16;;;19.61;44.65
10618;BME280;5356;43.526;26.534;2022-10-16T12:25:39;100132.91;;;19.72;44.85
10618;BME280;5356;43.526;26.534;2022-10-16T12:30:41;100141.81;;;20.00;45.07
10618;BME280;5356;43.526;26.534;2022-10-16T12:33:20;100142.66;;;20.05;44.26
10618;BME280;5356;43.526;26.534;2022-10-16T12:35:46;100141.28;;;20.03;43.84
10618;BME280;5356;43.526;26.534;2022-10-16T12:40:44;100149.88;;;19.94;43.23
10618;BME280;5356;43.526;26.534;2022-10-16T12:43:40;100148.06;;;20.05;43.36
10618;BME280;5356;43.526;26.534;2022-10-16T12:48:38;100155.50;;;20.20;43.61
10618;BME280;5356;43.526;26.534;2022-10-16T12:51:25;100156.19;;;20.05;42.42
10618;BME280;5356;43.526;26.534;2022-10-16T12:54:00;100148.78;;;19.90;42.17
10618;BME280;5356;43.526;26.534;2022-10-16T13:13:22;100139.81;;;20.22;41.78
10618;BME280;5356;43.526;26.534;2022-10-16T13:18:41;100149.19;;;20.47;41.85
10618;BME280;5356;43.526;26.534;2022-10-16T13:27:04;100141.59;;;20.06;41.64
10618;BME280;5356;43.526;26.534;2022-10-16T13:29:32;100152.72;;;20.10;42.13
10618;BME280;5356;43.526;26.534;2022-10-16T13:32:00;100150.38;;;20.24;41.78
10618;BME280;5356;43.526;26.534;2022-10-16T13:34:27;100158.81;;;20.32;41.69
10618;BME280;5356;43.526;26.534;2022-10-16T13:36:53;100161.94;;;20.14;41.42
10618;BME280;5356;43.526;26.534;2022-10-16T13:39:26;100168.22;;;20.19;41.52
10618;BME280;5356;43.526;26.534;2022-10-16T13:42:11;100165.97;;;20.11;41.66
10618;BME280;5356;43.526;26.534;2022-10-16T13:44:44;100167.44;;;19.92;41.21
10618;BME280;5356;43.526;26.534;2022-10-16T13:47:22;100173.31;;;19.84;41.39
10618;BME280;5356;43.526;26.534;2022-10-16T13:52:25;100173.31;;;19.57;42.03
10618;BME280;5356;43.526;26.534;2022-10-16T13:54:50;100178.13;;;19.55;41.92
10618;BME280;5356;43.526;26.534;2022-10-16T13:57:17;100176.69;;;19.69;42.29
10618;BME280;5356;43.526;26.534;2022-10-16T13:59:43;100177.84;;;19.78;42.12
10618;BME280;5356;43.526;26.534;2022-10-16T14:04:50;100171.78;;;19.66;41.71
10618;BME280;5356;43.526;26.534;2022-10-16T14:07:34;100179.41;;;19.69;41.69
10618;BME280;5356;43.526;26.534;2022-10-16T14:10:06;100184.56;;;19.70;42.13
10618;BME280;5356;43.526;26.534;2022-10-16T14:12:33;100180.56;;;19.78;41.93
10618;BME280;5356;43.526;26.534;2022-10-16T14:14:59;100180.56;;;19.78;41.78
10618;BME280;5356;43.526;26.534;2022-10-16T14:17:28;100184.00;;;19.68;41.78
10618;BME280;5356;43.526;26.534;2022-10-16T14:20:00;100183.31;;;19.56;42.27
10618;BME280;5356;43.526;26.534;2022-10-16T14:22:59;100172.66;;;19.49;42.38
10618;BME280;5356;43.526;26.534;2022-10-16T14:25:28;100180.47;;;19.46;42.50
10618;BME280;5356;43.526;26.534;2022-10-16T14:28:16;100185.72;;;19.31;42.51
10618;BME280;5356;43.526;26.534;2022-10-16T14:30:55;100195.59;;;19.20;42.76
10618;BME280;5356;43.526;26.534;2022-10-16T14:38:36;100197.69;;;18.96;42.99
10618;BME280;5356;43.526;26.534;2022-10-16T14:41:03;100195.19;;;18.72;43.14
10618;BME280;5356;43.526;26.534;2022-10-16T14:43:37;100195.44;;;18.71;43.40
10618;BME280;5356;43.526;26.534;2022-10-16T14:46:18;100189.72;;;18.67;43.58
10618;BME280;5356;43.526;26.534;2022-10-16T14:48:46;100192.03;;;18.58;43.89
10618;BME280;5356;43.526;26.534;2022-10-16T14:51:15;100197.00;;;18.67;44.18
10618;BME280;5356;43.526;26.534;2022-10-16T14:53:40;100205.69;;;18.69;44.23
10618;BME280;5356;43.526;26.534;2022-10-16T14:56:08;100208.44;;;18.57;44.99
10618;BME280;5356;43.526;26.534;2022-10-16T14:58:34;100209.44;;;18.34;45.57
10618;BME280;5356;43.526;26.534;2022-10-16T15:01:00;100208.22;;;18.25;44.81
10618;BME280;5356;43.526;26.534;2022-10-16T15:03:26;100206.09;;;18.10;44.91
10618;BME280;5356;43.526;26.534;2022-10-16T15:05:51;100216.00;;;18.04;45.02
10618;BME280;5356;43.526;26.534;2022-10-16T15:08:17;100217.06;;;18.03;45.15
10618;BME280;5356;43.526;26.534;2022-10-16T15:10:43;100209.59;;;17.93;45.07
10618;BME280;5356;43.526;26.534;2022-10-16T15:13:12;100206.47;;;17.85;45.77